sensor_id;sensor_type;location;lat;lon;timestamp;temperature;humidity
55054;DHT22;40954;45.668;18.980;2022-11-11T00:01:37;282.50;2278.40
55054;DHT22;40954;45.668;18.980;2022-11-11T00:04:03;282.50;2278.40
55054;DHT22;40954;45.668;18.980;2022-11-11T00:06:29;282.40;2278.40
55054;DHT22;40954;45.668;18.980;2022-11-11T00:08:54;282.40;2278.40
55054;DHT22;40954;45.668;18.980;2022-11-11T00:11:20;282.40;2278.40
55054;DHT22;40954;45.668;18.980;2022-11-11T00:13:45;282.40;2278.40
55054;DHT22;40954;45.668;18.980;2022-11-11T00:16:14;282.30;2278.40
55054;DHT22;40954;45.668;18.980;2022-11-11T00:18:41;282.40;2278.40
55054;DHT22;40954;45.668;18.980;2022-11-11T00:21:26;282.40;2278.40
55054;DHT22;40954;45.668;18.980;2022-11-11T00:24:26;282.30;2278.40
55054;DHT22;40954;45.668;18.980;2022-11-11T00:27:11;282.30;2278.40
55054;DHT22;40954;45.668;18.980;2022-11-11T00:29:38;282.20;2278.40
55054;DHT22;40954;45.668;18.980;2022-11-11T00:32:07;282.20;2278.40
55054;DHT22;40954;45.668;18.980;2022-11-11T00:34:50;282.20;2278.40
55054;DHT22;40954;45.668;18.980;2022-11-11T00:37:34;282.20;2278.40
55054;DHT22;40954;45.668;18.980;2022-11-11T00:40:00;282.20;2278.40
55054;DHT22;40954;45.668;18.980;2022-11-11T00:42:26;282.10;2278.40
55054;DHT22;40954;45.668;18.980;2022-11-11T00:44:52;282.10;2278.40
55054;DHT22;40954;45.668;18.980;2022-11-11T00:47:18;282.10;2278.40
55054;DHT22;40954;45.668;18.980;2022-11-11T00:50:03;282.10;2278.40
55054;DHT22;40954;45.668;18.980;2022-11-11T00:52:48;281.80;2278.40
55054;DHT22;40954;45.668;18.980;2022-11-11T00:55:14;281.60;2278.40
55054;DHT22;40954;45.668;18.980;2022-11-11T00:57:39;256.80;2252.80
55054;DHT22;40954;45.668;18.980;2022-11-11T01:00:06;256.80;2252.80
55054;DHT22;40954;45.668;18.980;2022-11-11T01:02:32;256.60;2252.80
55054;DHT22;40954;45.668;18.980;2022-11-11T01:04:57;256.50;2252.80
55054;DHT22;40954;45.668;18.980;2022-11-11T01:07:23;256.50;2252.80
55054;DHT22;40954;45.668;18.980;2022-11-11T01:09:49;256.40;2252.80
55054;DHT22;40954;45.668;18.980;2022-11-11T01:12:15;256.40;1868.80
55054;DHT22;40954;45.668;18.980;2022-11-11T01:14:40;256.40;1894.40
55054;DHT22;40954;45.668;18.980;2022-11-11T01:17:06;256.30;1971.20
55054;DHT22;40954;45.668;18.980;2022-11-11T01:19:34;256.20;2176.00
55054;DHT22;40954;45.668;18.980;2022-11-11T01:22:00;256.10;2124.80
55054;DHT22;40954;45.668;18.980;2022-11-11T01:24:25;256.20;2252.80
55054;DHT22;40954;45.668;18.980;2022-11-11T01:26:51;256.10;2252.80
55054;DHT22;40954;45.668;18.980;2022-11-11T01:29:17;256.10;2201.60
55054;DHT22;40954;45.668;18.980;2022-11-11T01:31:43;256.10;2150.40
55054;DHT22;40954;45.668;18.980;2022-11-11T01:34:09;256.10;2176.00
55054;DHT22;40954;45.668;18.980;2022-11-11T01:36:34;256.10;2252.80
55054;DHT22;40954;45.668;18.980;2022-11-11T01:39:00;256.10;2252.80
55054;DHT22;40954;45.668;18.980;2022-11-11T01:41:29;256.10;2124.80
55054;DHT22;40954;45.668;18.980;2022-11-11T01:46:52;256.00;2227.20
55054;DHT22;40954;45.668;18.980;2022-11-11T01:49:54;231.30;2252.80
55054;DHT22;40954;45.668;18.980;2022-11-11T01:52:26;231.30;2252.80
55054;DHT22;40954;45.668;18.980;2022-11-11T01:55:01;231.20;2252.80
55054;DHT22;40954;45.668;18.980;2022-11-11T01:57:32;231.20;2252.80
55054;DHT22;40954;45.668;18.980;2022-11-11T02:00:06;231.20;2252.80
55054;DHT22;40954;45.668;18.980;2022-11-11T02:05:15;231.10;2252.80
55054;DHT22;40954;45.668;18.980;2022-11-11T02:08:06;231.10;2252.80
55054;DHT22;40954;45.668;18.980;2022-11-11T02:10:34;231.10;2252.80
55054;DHT22;40954;45.668;18.980;2022-11-11T02:13:00;231.20;2252.80
55054;DHT22;40954;45.668;18.980;2022-11-11T02:15:44;231.10;2252.80
55054;DHT22;40954;45.668;18.980;2022-11-11T02:18:10;231.10;2252.80
55054;DHT22;40954;45.668;18.980;2022-11-11T02:20:39;231.00;2252.80
55054;DHT22;40954;45.668;18.980;2022-11-11T02:25:38;231.00;2252.80
55054;DHT22;40954;45.668;18.980;2022-11-11T02:28:06;231.00;2252.80
55054;DHT22;40954;45.668;18.980;2022-11-11T02:30:32;230.90;2252.80
55054;DHT22;40954;45.668;18.980;2022-11-11T02:32:58;230.90;2252.80
55054;DHT22;40954;45.668;18.980;2022-11-11T02:35:38;231.00;2252.80
55054;DHT22;40954;45.668;18.980;2022-11-11T02:38:06;230.90;2252.80
55054;DHT22;40954;45.668;18.980;2022-11-11T02:40:40;230.90;2252.80
55054;DHT22;40954;45.668;18.980;2022-11-11T02:43:25;230.90;2252.80
55054;DHT22;40954;45.668;18.980;2022-11-11T02:45:51;230.90;2252.80
55054;DHT22;40954;45.668;18.980;2022-11-11T02:48:17;230.90;2252.80
55054;DHT22;40954;45.668;18.980;2022-11-11T02:50:43;230.90;2252.80
55054;DHT22;40954;45.668;18.980;2022-11-11T02:53:09;230.90;2252.80
55054;DHT22;40954;45.668;18.980;2022-11-11T02:55:34;230.90;2252.80
55054;DHT22;40954;45.668;18.980;2022-11-11T02:58:00;230.90;2252.80
55054;DHT22;40954;45.668;18.980;2022-11-11T03:00:26;230.80;2252.80
55054;DHT22;40954;45.668;18.980;2022-11-11T03:02:52;230.90;2252.80
55054;DHT22;40954;45.668;18.980;2022-11-11T03:05:17;230.90;2252.80
55054;DHT22;40954;45.668;18.980;2022-11-11T03:07:43;230.90;2252.80
55054;DHT22;40954;45.668;18.980;2022-11-11T03:10:09;230.90;2252.80
55054;DHT22;40954;45.668;18.980;2022-11-11T03:12:35;230.90;2252.80
55054;DHT22;40954;45.668;18.980;2022-11-11T03:15:01;230.90;2252.80
55054;DHT22;40954;45.668;18.980;2022-11-11T03:17:26;230.90;2252.80
55054;DHT22;40954;45.668;18.980;2022-11-11T03:20:07;230.90;2252.80
55054;DHT22;40954;45.668;18.980;2022-11-11T03:23:03;230.80;2252.80
55054;DHT22;40954;45.668;18.980;2022-11-11T03:25:29;230.80;2252.80
55054;DHT22;40954;45.668;18.980;2022-11-11T03:28:08;230.80;2252.80
55054;DHT22;40954;45.668;18.980;2022-11-11T03:30:35;230.80;2252.80
55054;DHT22;40954;45.668;18.980;2022-11-11T03:33:01;230.80;2252.80
55054;DHT22;40954;45.668;18.980;2022-11-11T03:35:28;230.80;2252.80
55054;DHT22;40954;45.668;18.980;2022-11-11T03:37:54;230.80;2252.80
55054;DHT22;40954;45.668;18.980;2022-11-11T03:40:38;230.80;2252.80
55054;DHT22;40954;45.668;18.980;2022-11-11T03:43:04;230.80;2252.80
55054;DHT22;40954;45.668;18.980;2022-11-11T03:45:30;230.70;2252.80
55054;DHT22;40954;45.668;18.980;2022-11-11T03:47:56;230.80;2252.80
55054;DHT22;40954;45.668;18.980;2022-11-11T03:50:23;230.80;2252.80
55054;DHT22;40954;45.668;18.980;2022-11-11T03:52:48;230.80;2252.80
55054;DHT22;40954;45.668;18.980;2022-11-11T03:55:15;230.80;2252.80
55054;DHT22;40954;45.668;18.980;2022-11-11T03:57:42;230.80;2252.80
55054;DHT22;40954;45.668;18.980;2022-11-11T04:00:11;230.80;2252.80
55054;DHT22;40954;45.668;18.980;2022-11-11T04:02:37;230.80;2252.80
55054;DHT22;40954;45.668;18.980;2022-11-11T04:05:26;230.70;2252.80
55054;DHT22;40954;45.668;18.980;2022-11-11T04:08:12;230.70;2252.80
55054;DHT22;40954;45.668;18.980;2022-11-11T04:10:58;230.70;2252.80
55054;DHT22;40954;45.668;18.980;2022-11-11T04:13:26;230.70;2252.80
55054;DHT22;40954;45.668;18.980;2022-11-11T04:16:11;230.70;2252.80
55054;DHT22;40954;45.668;18.980;2022-11-11T04:18:37;230.70;2252.80
55054;DHT22;40954;45.668;18.980;2022-11-11T04:21:22;230.60;2252.80
55054;DHT22;40954;45.668;18.980;2022-11-11T04:24:17;230.60;2252.80
55054;DHT22;40954;45.668;18.980;2022-11-11T04:27:04;230.60;2252.80
55054;DHT22;40954;45.668;18.980;2022-11-11T04:29:30;230.70;2252.80
55054;DHT22;40954;45.668;18.980;2022-11-11T04:34:58;230.60;2252.80
55054;DHT22;40954;45.668;18.980;2022-11-11T04:37:25;230.60;2252.80
55054;DHT22;40954;45.668;18.980;2022-11-11T04:39:51;230.60;2252.80
55054;DHT22;40954;45.668;18.980;2022-11-11T04:42:36;230.60;2252.80
55054;DHT22;40954;45.668;18.980;2022-11-11T04:45:04;230.60;2252.80
55054;DHT22;40954;45.668;18.980;2022-11-11T04:48:05;230.50;2252.80
55054;DHT22;40954;45.668;18.980;2022-11-11T04:50:36;230.50;2252.80
55054;DHT22;40954;45.668;18.980;2022-11-11T04:53:06;230.50;2252.80
55054;DHT22;40954;45.668;18.980;2022-11-11T04:55:31;230.50;2252.80
55054;DHT22;40954;45.668;18.980;2022-11-11T04:58:21;230.40;2252.80
55054;DHT22;40954;45.668;18.980;2022-11-11T05:00:47;230.50;2252.80
55054;DHT22;40954;45.668;18.980;2022-11-11T05:03:15;230.40;2252.80
55054;DHT22;40954;45.668;18.980;2022-11-11T05:08:35;230.40;2252.80
55054;DHT22;40954;45.668;18.980;2022-11-11T05:11:30;230.40;2252.80
55054;DHT22;40954;45.668;18.980;2022-11-11T05:13:58;230.40;2252.80
55054;DHT22;40954;45.668;18.980;2022-11-11T05:16:44;205.70;2252.80
55054;DHT22;40954;45.668;18.980;2022-11-11T05:19:29;230.40;2252.80
55054;DHT22;40954;45.668;18.980;2022-11-11T05:22:30;205.70;2252.80
55054;DHT22;40954;45.668;18.980;2022-11-11T05:24:57;205.60;2252.80
55054;DHT22;40954;45.668;18.980;2022-11-11T05:27:41;205.60;2252.80
55054;DHT22;40954;45.668;18.980;2022-11-11T05:30:08;230.40;2252.80
55054;DHT22;40954;45.668;18.980;2022-11-11T05:32:35;205.60;2252.80
55054;DHT22;40954;45.668;18.980;2022-11-11T05:35:01;205.60;2252.80
55054;DHT22;40954;45.668;18.980;2022-11-11T05:37:26;205.60;2252.80
55054;DHT22;40954;45.668;18.980;2022-11-11T05:39:52;205.60;2252.80
55054;DHT22;40954;45.668;18.980;2022-11-11T05:42:18;205.70;2252.80
55054;DHT22;40954;45.668;18.980;2022-11-11T05:44:44;205.70;2252.80
55054;DHT22;40954;45.668;18.980;2022-11-11T05:47:09;205.70;2252.80
55054;DHT22;40954;45.668;18.980;2022-11-11T05:49:35;205.70;2252.80
55054;DHT22;40954;45.668;18.980;2022-11-11T05:52:02;205.70;2252.80
55054;DHT22;40954;45.668;18.980;2022-11-11T05:54:28;205.50;2252.80
55054;DHT22;40954;45.668;18.980;2022-11-11T05:56:53;205.70;2252.80
55054;DHT22;40954;45.668;18.980;2022-11-11T05:59:19;205.70;2201.60
55054;DHT22;40954;45.668;18.980;2022-11-11T06:01:45;230.40;2124.80
55054;DHT22;40954;45.668;18.980;2022-11-11T06:04:11;230.40;2176.00
55054;DHT22;40954;45.668;18.980;2022-11-11T06:06:37;230.40;1945.60
55054;DHT22;40954;45.668;18.980;2022-11-11T06:09:03;230.50;2022.40
55054;DHT22;40954;45.668;18.980;2022-11-11T06:11:30;230.50;1945.60
55054;DHT22;40954;45.668;18.980;2022-11-11T06:13:56;230.50;1894.40
55054;DHT22;40954;45.668;18.980;2022-11-11T06:16:22;230.60;2252.80
55054;DHT22;40954;45.668;18.980;2022-11-11T06:18:49;230.60;2252.80
55054;DHT22;40954;45.668;18.980;2022-11-11T06:21:15;230.70;2252.80
55054;DHT22;40954;45.668;18.980;2022-11-11T06:23:40;230.70;2252.80
55054;DHT22;40954;45.668;18.980;2022-11-11T06:26:07;230.70;2252.80
55054;DHT22;40954;45.668;18.980;2022-11-11T06:31:18;230.70;2252.80
55054;DHT22;40954;45.668;18.980;2022-11-11T06:33:44;230.70;2252.80
55054;DHT22;40954;45.668;18.980;2022-11-11T06:36:12;230.80;2252.80
55054;DHT22;40954;45.668;18.980;2022-11-11T06:38:41;230.70;2252.80
55054;DHT22;40954;45.668;18.980;2022-11-11T06:41:08;230.70;2252.80
55054;DHT22;40954;45.668;18.980;2022-11-11T06:43:34;230.70;2252.80
55054;DHT22;40954;45.668;18.980;2022-11-11T06:46:00;230.60;2252.80
55054;DHT22;40954;45.668;18.980;2022-11-11T06:48:27;230.70;2252.80
55054;DHT22;40954;45.668;18.980;2022-11-11T06:50:53;230.70;2252.80
55054;DHT22;40954;45.668;18.980;2022-11-11T06:53:21;230.70;2252.80
55054;DHT22;40954;45.668;18.980;2022-11-11T06:55:47;230.70;2252.80
55054;DHT22;40954;45.668;18.980;2022-11-11T06:58:17;230.70;1868.80
55054;DHT22;40954;45.668;18.980;2022-11-11T07:00:45;230.70;1894.40
55054;DHT22;40954;45.668;18.980;2022-11-11T07:03:13;230.70;2252.80
55054;DHT22;40954;45.668;18.980;2022-11-11T07:05:40;230.70;2073.60
55054;DHT22;40954;45.668;18.980;2022-11-11T07:08:09;230.90;1945.60
55054;DHT22;40954;45.668;18.980;2022-11-11T07:10:37;230.80;2252.80
55054;DHT22;40954;45.668;18.980;2022-11-11T07:13:04;230.80;2252.80
55054;DHT22;40954;45.668;18.980;2022-11-11T07:15:31;230.90;2048.00
55054;DHT22;40954;45.668;18.980;2022-11-11T07:17:57;230.80;2252.80
55054;DHT22;40954;45.668;18.980;2022-11-11T07:20:23;230.90;1868.80
55054;DHT22;40954;45.668;18.980;2022-11-11T07:22:48;230.90;2252.80
55054;DHT22;40954;45.668;18.980;2022-11-11T07:25:14;231.00;1920.00
55054;DHT22;40954;45.668;18.980;2022-11-11T07:27:41;231.10;1971.20
55054;DHT22;40954;45.668;18.980;2022-11-11T07:30:08;231.10;2252.80
55054;DHT22;40954;45.668;18.980;2022-11-11T07:32:34;231.20;2252.80
55054;DHT22;40954;45.668;18.980;2022-11-11T07:35:01;231.30;2252.80
55054;DHT22;40954;45.668;18.980;2022-11-11T07:37:26;256.10;2252.80
55054;DHT22;40954;45.668;18.980;2022-11-11T07:39:52;256.20;2252.80
55054;DHT22;40954;45.668;18.980;2022-11-11T07:42:19;256.30;2252.80
55054;DHT22;40954;45.668;18.980;2022-11-11T07:44:45;256.40;2252.80
55054;DHT22;40954;45.668;18.980;2022-11-11T07:47:11;256.40;2252.80
55054;DHT22;40954;45.668;18.980;2022-11-11T07:49:36;256.50;2252.80
55054;DHT22;40954;45.668;18.980;2022-11-11T07:52:02;256.50;2252.80
55054;DHT22;40954;45.668;18.980;2022-11-11T07:54:28;256.60;2252.80
55054;DHT22;40954;45.668;18.980;2022-11-11T07:56:53;256.60;2252.80
55054;DHT22;40954;45.668;18.980;2022-11-11T07:59:19;256.80;2252.80
55054;DHT22;40954;45.668;18.980;2022-11-11T08:01:45;256.90;2252.80
55054;DHT22;40954;45.668;18.980;2022-11-11T08:04:10;256.90;2252.80
55054;DHT22;40954;45.668;18.980;2022-11-11T08:06:36;281.60;2278.40
55054;DHT22;40954;45.668;18.980;2022-11-11T08:09:02;256.90;2252.80
55054;DHT22;40954;45.668;18.980;2022-11-11T08:11:28;281.60;2278.40
55054;DHT22;40954;45.668;18.980;2022-11-11T08:14:12;281.60;2278.40
55054;DHT22;40954;45.668;18.980;2022-11-11T08:16:38;256.90;2252.80
55054;DHT22;40954;45.668;18.980;2022-11-11T08:19:03;281.80;2278.40
55054;DHT22;40954;45.668;18.980;2022-11-11T08:21:29;281.80;2278.40
55054;DHT22;40954;45.668;18.980;2022-11-11T08:23:55;281.90;2278.40
55054;DHT22;40954;45.668;18.980;2022-11-11T08:26:21;281.70;2278.40
55054;DHT22;40954;45.668;18.980;2022-11-11T08:28:48;281.80;2278.40
55054;DHT22;40954;45.668;18.980;2022-11-11T08:31:14;281.90;2278.40
55054;DHT22;40954;45.668;18.980;2022-11-11T08:33:40;282.20;2278.40
55054;DHT22;40954;45.668;18.980;2022-11-11T08:36:06;282.30;2278.40
55054;DHT22;40954;45.668;18.980;2022-11-11T08:38:33;282.50;2278.40
55054;DHT22;40954;45.668;18.980;2022-11-11T08:41:04;307.40;2304.00
55054;DHT22;40954;45.668;18.980;2022-11-11T08:43:30;307.70;2304.00
55054;DHT22;40954;45.668;18.980;2022-11-11T08:46:00;307.90;2304.00
55054;DHT22;40954;45.668;18.980;2022-11-11T08:48:29;332.80;2329.60
55054;DHT22;40954;45.668;18.980;2022-11-11T08:50:55;332.80;2329.60
55054;DHT22;40954;45.668;18.980;2022-11-11T08:53:21;332.80;2329.60
55054;DHT22;40954;45.668;18.980;2022-11-11T08:55:47;308.00;2304.00
55054;DHT22;40954;45.668;18.980;2022-11-11T08:58:13;332.90;2329.60
55054;DHT22;40954;45.668;18.980;2022-11-11T09:00:38;333.10;2329.60
55054;DHT22;40954;45.668;18.980;2022-11-11T09:03:07;333.00;2329.60
55054;DHT22;40954;45.668;18.980;2022-11-11T09:05:36;333.30;2329.60
55054;DHT22;40954;45.668;18.980;2022-11-11T09:08:03;333.60;2329.60
55054;DHT22;40954;45.668;18.980;2022-11-11T09:10:31;333.50;2329.60
55054;DHT22;40954;45.668;18.980;2022-11-11T09:12:58;333.40;2329.60
55054;DHT22;40954;45.668;18.980;2022-11-11T09:15:24;333.40;2329.60
55054;DHT22;40954;45.668;18.980;2022-11-11T09:17:51;333.60;2329.60
55054;DHT22;40954;45.668;18.980;2022-11-11T09:20:17;358.50;2329.60
55054;DHT22;40954;45.668;18.980;2022-11-11T09:22:47;358.90;2329.60
55054;DHT22;40954;45.668;18.980;2022-11-11T09:25:14;358.80;2329.60
55054;DHT22;40954;45.668;18.980;2022-11-11T09:27:40;359.10;2329.60
55054;DHT22;40954;45.668;18.980;2022-11-11T09:30:06;358.80;2329.60
55054;DHT22;40954;45.668;18.980;2022-11-11T09:32:32;358.70;2329.60
55054;DHT22;40954;45.668;18.980;2022-11-11T09:34:58;358.90;2329.60
55054;DHT22;40954;45.668;18.980;2022-11-11T09:37:25;358.90;2329.60
55054;DHT22;40954;45.668;18.980;2022-11-11T09:39:50;358.90;2329.60
55054;DHT22;40954;45.668;18.980;2022-11-11T09:50:53;384.20;2329.60
55054;DHT22;40954;45.668;18.980;2022-11-11T09:55:54;384.20;2329.60
55054;DHT22;40954;45.668;18.980;2022-11-11T09:58:52;384.20;2329.60
55054;DHT22;40954;45.668;18.980;2022-11-11T10:01:25;384.40;2329.60
55054;DHT22;40954;45.668;18.980;2022-11-11T10:07:01;384.70;2329.60
55054;DHT22;40954;45.668;18.980;2022-11-11T10:09:45;384.70;2329.60
55054;DHT22;40954;45.668;18.980;2022-11-11T10:12:14;384.60;2329.60
55054;DHT22;40954;45.668;18.980;2022-11-11T10:14:44;384.50;2329.60
55054;DHT22;40954;45.668;18.980;2022-11-11T10:20:27;384.80;2329.60
55054;DHT22;40954;45.668;18.980;2022-11-11T10:23:24;384.90;2329.60
55054;DHT22;40954;45.668;18.980;2022-11-11T10:25:56;384.50;2329.60
55054;DHT22;40954;45.668;18.980;2022-11-11T10:28:28;384.60;2329.60
55054;DHT22;40954;45.668;18.980;2022-11-11T10:30:55;409.60;2355.20
55054;DHT22;40954;45.668;18.980;2022-11-11T10:33:40;410.10;2355.20
55054;DHT22;40954;45.668;18.980;2022-11-11T10:36:17;410.50;2355.20
55054;DHT22;40954;45.668;18.980;2022-11-11T10:38:54;435.20;2355.20
55054;DHT22;40954;45.668;18.980;2022-11-11T10:41:32;435.40;2355.20
55054;DHT22;40954;45.668;18.980;2022-11-11T10:44:00;435.80;2355.20
55054;DHT22;40954;45.668;18.980;2022-11-11T10:46:38;460.90;2380.80
55054;DHT22;40954;45.668;18.980;2022-11-11T14:56:27;460.80;2380.80
55054;DHT22;40954;45.668;18.980;2022-11-11T14:58:52;435.80;2355.20
55054;DHT22;40954;45.668;18.980;2022-11-11T15:01:19;435.60;2355.20
55054;DHT22;40954;45.668;18.980;2022-11-11T15:03:47;435.40;2355.20
55054;DHT22;40954;45.668;18.980;2022-11-11T15:06:23;410.50;2355.20
55054;DHT22;40954;45.668;18.980;2022-11-11T15:28:57;409.80;2355.20
55054;DHT22;40954;45.668;18.980;2022-11-11T15:36:56;409.60;2355.20
55054;DHT22;40954;45.668;18.980;2022-11-11T15:39:36;384.90;2329.60
55054;DHT22;40954;45.668;18.980;2022-11-11T15:42:03;384.90;2329.60
55054;DHT22;40954;45.668;18.980;2022-11-11T15:44:31;384.80;2329.60
55054;DHT22;40954;45.668;18.980;2022-11-11T15:46:59;384.70;2329.60
55054;DHT22;40954;45.668;18.980;2022-11-11T15:49:42;384.30;2329.60
55054;DHT22;40954;45.668;18.980;2022-11-11T15:52:29;384.50;2329.60
55054;DHT22;40954;45.668;18.980;2022-11-11T15:54:56;384.50;2329.60
55054;DHT22;40954;45.668;18.980;2022-11-11T15:57:24;384.40;2329.60
55054;DHT22;40954;45.668;18.980;2022-11-11T15:59:50;384.30;2329.60
55054;DHT22;40954;45.668;18.980;2022-11-11T16:02:24;384.30;2329.60
55054;DHT22;40954;45.668;18.980;2022-11-11T16:04:57;384.20;2329.60
55054;DHT22;40954;45.668;18.980;2022-11-11T16:07:28;384.20;2329.60
55054;DHT22;40954;45.668;18.980;2022-11-11T16:09:58;384.20;2329.60
55054;DHT22;40954;45.668;18.980;2022-11-11T16:12:36;384.20;2329.60
55054;DHT22;40954;45.668;18.980;2022-11-11T16:15:07;384.10;2329.60
55054;DHT22;40954;45.668;18.980;2022-11-11T16:17:37;384.10;2329.60
55054;DHT22;40954;45.668;18.980;2022-11-11T16:20:04;384.00;2329.60
55054;DHT22;40954;45.668;18.980;2022-11-11T16:22:37;384.00;2329.60
55054;DHT22;40954;45.668;18.980;2022-11-11T16:25:04;359.30;2329.60
55054;DHT22;40954;45.668;18.980;2022-11-11T16:27:32;359.10;2329.60
55054;DHT22;40954;45.668;18.980;2022-11-11T16:30:34;358.80;2329.60
55054;DHT22;40954;45.668;18.980;2022-11-11T16:33:00;358.70;2329.60
55054;DHT22;40954;45.668;18.980;2022-11-11T16:35:34;358.50;2329.60
55054;DHT22;40954;45.668;18.980;2022-11-11T16:38:00;358.40;2329.60
55054;DHT22;40954;45.668;18.980;2022-11-11T16:43:19;333.60;2329.60
55054;DHT22;40954;45.668;18.980;2022-11-11T16:45:59;333.60;2329.60
55054;DHT22;40954;45.668;18.980;2022-11-11T16:51:00;333.50;2329.60
55054;DHT22;40954;45.668;18.980;2022-11-11T16:53:33;333.50;2329.60
55054;DHT22;40954;45.668;18.980;2022-11-11T16:56:00;333.50;2329.60
55054;DHT22;40954;45.668;18.980;2022-11-11T16:58:27;333.60;2329.60
55054;DHT22;40954;45.668;18.980;2022-11-11T17:01:02;333.60;2329.60
55054;DHT22;40954;45.668;18.980;2022-11-11T17:03:28;333.60;2329.60
55054;DHT22;40954;45.668;18.980;2022-11-11T17:06:07;333.70;2329.60
55054;DHT22;40954;45.668;18.980;2022-11-11T17:08:41;333.70;2329.60
55054;DHT22;40954;45.668;18.980;2022-11-11T17:11:09;333.60;2329.60
55054;DHT22;40954;45.668;18.980;2022-11-11T17:13:35;333.60;2329.60
55054;DHT22;40954;45.668;18.980;2022-11-11T17:16:03;333.60;2329.60
55054;DHT22;40954;45.668;18.980;2022-11-11T17:18:32;333.60;2329.60
55054;DHT22;40954;45.668;18.980;2022-11-11T17:21:00;333.50;2329.60
55054;DHT22;40954;45.668;18.980;2022-11-11T17:23:26;333.50;2329.60
55054;DHT22;40954;45.668;18.980;2022-11-11T17:25:58;333.50;2329.60
55054;DHT22;40954;45.668;18.980;2022-11-11T17:28:26;333.40;2329.60
55054;DHT22;40954;45.668;18.980;2022-11-11T17:30:52;333.40;2329.60
55054;DHT22;40954;45.668;18.980;2022-11-11T17:33:17;333.40;2329.60
55054;DHT22;40954;45.668;18.980;2022-11-11T17:35:50;333.40;2329.60
55054;DHT22;40954;45.668;18.980;2022-11-11T17:38:16;333.70;2329.60
55054;DHT22;40954;45.668;18.980;2022-11-11T17:40:46;333.30;2329.60
55054;DHT22;40954;45.668;18.980;2022-11-11T17:43:12;333.30;2329.60
55054;DHT22;40954;45.668;18.980;2022-11-11T17:45:38;333.30;2329.60
55054;DHT22;40954;45.668;18.980;2022-11-11T17:48:04;333.20;2329.60
55054;DHT22;40954;45.668;18.980;2022-11-11T17:50:30;333.20;2329.60
55054;DHT22;40954;45.668;18.980;2022-11-11T17:52:56;333.10;2329.60
55054;DHT22;40954;45.668;18.980;2022-11-11T17:55:24;333.10;2329.60
55054;DHT22;40954;45.668;18.980;2022-11-11T17:57:50;333.10;2329.60
55054;DHT22;40954;45.668;18.980;2022-11-11T18:00:16;333.10;2329.60
55054;DHT22;40954;45.668;18.980;2022-11-11T18:02:42;333.10;2329.60
55054;DHT22;40954;45.668;18.980;2022-11-11T18:05:08;333.10;2329.60
55054;DHT22;40954;45.668;18.980;2022-11-11T18:07:34;333.10;2329.60
55054;DHT22;40954;45.668;18.980;2022-11-11T18:10:00;333.10;2329.60
55054;DHT22;40954;45.668;18.980;2022-11-11T18:12:27;333.10;2329.60
55054;DHT22;40954;45.668;18.980;2022-11-11T18:14:53;333.10;2329.60
55054;DHT22;40954;45.668;18.980;2022-11-11T18:17:18;333.10;2329.60
55054;DHT22;40954;45.668;18.980;2022-11-11T18:19:44;333.10;2329.60
55054;DHT22;40954;45.668;18.980;2022-11-11T18:22:10;333.10;2329.60
55054;DHT22;40954;45.668;18.980;2022-11-11T18:24:36;333.00;2329.60
55054;DHT22;40954;45.668;18.980;2022-11-11T18:27:01;333.00;2329.60
55054;DHT22;40954;45.668;18.980;2022-11-11T18:29:27;333.00;2329.60
55054;DHT22;40954;45.668;18.980;2022-11-11T18:31:54;333.00;2329.60
55054;DHT22;40954;45.668;18.980;2022-11-11T18:34:19;333.00;2329.60
55054;DHT22;40954;45.668;18.980;2022-11-11T18:36:45;333.00;2329.60
55054;DHT22;40954;45.668;18.980;2022-11-11T18:39:11;332.90;2329.60
55054;DHT22;40954;45.668;18.980;2022-11-11T18:41:36;332.80;2329.60
55054;DHT22;40954;45.668;18.980;2022-11-11T18:44:02;332.80;2329.60
55054;DHT22;40954;45.668;18.980;2022-11-11T18:46:28;332.90;2329.60
55054;DHT22;40954;45.668;18.980;2022-11-11T18:48:59;332.80;2329.60
55054;DHT22;40954;45.668;18.980;2022-11-11T18:51:26;332.80;2329.60
55054;DHT22;40954;45.668;18.980;2022-11-11T18:53:53;332.80;2329.60
55054;DHT22;40954;45.668;18.980;2022-11-11T18:56:21;332.80;2329.60
55054;DHT22;40954;45.668;18.980;2022-11-11T18:58:49;308.10;2304.00
55054;DHT22;40954;45.668;18.980;2022-11-11T19:01:17;308.10;2304.00
55054;DHT22;40954;45.668;18.980;2022-11-11T19:03:50;308.10;2304.00
55054;DHT22;40954;45.668;18.980;2022-11-11T19:06:17;308.10;2304.00
55054;DHT22;40954;45.668;18.980;2022-11-11T19:08:44;308.00;2304.00
55054;DHT22;40954;45.668;18.980;2022-11-11T19:11:10;308.00;2304.00
55054;DHT22;40954;45.668;18.980;2022-11-11T19:13:37;308.00;2304.00
55054;DHT22;40954;45.668;18.980;2022-11-11T19:16:11;308.00;2304.00
55054;DHT22;40954;45.668;18.980;2022-11-11T19:18:37;307.90;2304.00
55054;DHT22;40954;45.668;18.980;2022-11-11T19:21:21;308.00;2304.00
55054;DHT22;40954;45.668;18.980;2022-11-11T19:23:49;308.00;2304.00
55054;DHT22;40954;45.668;18.980;2022-11-11T19:26:15;308.00;2304.00
55054;DHT22;40954;45.668;18.980;2022-11-11T19:28:42;307.90;2304.00
55054;DHT22;40954;45.668;18.980;2022-11-11T19:31:12;307.90;2304.00
55054;DHT22;40954;45.668;18.980;2022-11-11T19:33:40;307.90;2304.00
55054;DHT22;40954;45.668;18.980;2022-11-11T19:36:08;307.90;2304.00
55054;DHT22;40954;45.668;18.980;2022-11-11T19:38:34;307.90;2304.00
55054;DHT22;40954;45.668;18.980;2022-11-11T19:41:11;307.90;2304.00
55054;DHT22;40954;45.668;18.980;2022-11-11T19:43:37;307.90;2304.00
55054;DHT22;40954;45.668;18.980;2022-11-11T19:46:05;307.90;2304.00
55054;DHT22;40954;45.668;18.980;2022-11-11T19:48:31;307.80;2304.00
55054;DHT22;40954;45.668;18.980;2022-11-11T19:51:09;307.80;2304.00
55054;DHT22;40954;45.668;18.980;2022-11-11T19:53:35;307.70;2304.00
55054;DHT22;40954;45.668;18.980;2022-11-11T19:56:03;307.80;2304.00
55054;DHT22;40954;45.668;18.980;2022-11-11T19:58:29;307.70;2304.00
55054;DHT22;40954;45.668;18.980;2022-11-11T20:00:55;307.70;2304.00
55054;DHT22;40954;45.668;18.980;2022-11-11T20:03:21;307.70;2304.00